sensor_id;sensor_type;location;lat;lon;timestamp;pressure;altitude;pressure_sealevel;temperature;humidity
46394;BME280;32099;53.588;10.176;2022-09-09T00:01:23;100473.22;;;15.88;83.69
46394;BME280;32099;53.588;10.176;2022-09-09T00:06:46;100471.09;;;15.90;84.33
46394;BME280;32099;53.588;10.176;2022-09-09T00:09:21;100469.03;;;15.85;83.24
46394;BME280;32099;53.588;10.176;2022-09-09T00:11:54;100472.59;;;15.86;83.71
46394;BME280;32099;53.588;10.176;2022-09-09T00:17:26;100472.97;;;15.89;83.23
46394;BME280;32099;53.588;10.176;2022-09-09T00:20:48;100468.09;;;15.92;82.91
46394;BME280;32099;53.588;10.176;2022-09-09T00:22:52;100469.16;;;15.91;83.15
46394;BME280;32099;53.588;10.176;2022-09-09T00:25:27;100478.13;;;15.79;84.31
46394;BME280;32099;53.588;10.176;2022-09-09T00:27:59;100481.78;;;15.73;84.25
46394;BME280;32099;53.588;10.176;2022-09-09T00:30:26;100476.03;;;15.74;84.38
46394;BME280;32099;53.588;10.176;2022-09-09T00:33:00;100484.34;;;15.68;84.44
46394;BME280;32099;53.588;10.176;2022-09-09T00:35:34;100477.16;;;15.67;84.90
46394;BME280;32099;53.588;10.176;2022-09-09T00:38:14;100473.16;;;15.69;84.25
46394;BME280;32099;53.588;10.176;2022-09-09T00:43:28;100474.97;;;15.76;83.79
46394;BME280;32099;53.588;10.176;2022-09-09T00:57:31;100469.19;;;15.58;85.42
46394;BME280;32099;53.588;10.176;2022-09-09T01:00:15;100462.88;;;15.58;84.63
46394;BME280;32099;53.588;10.176;2022-09-09T01:02:53;100470.25;;;15.57;84.55
46394;BME280;32099;53.588;10.176;2022-09-09T01:07:57;100471.75;;;15.53;86.06
46394;BME280;32099;53.588;10.176;2022-09-09T01:13:28;100470.09;;;15.52;85.15
46394;BME280;32099;53.588;10.176;2022-09-09T01:15:55;100464.38;;;15.54;85.03
46394;BME280;32099;53.588;10.176;2022-09-09T01:18:23;100454.84;;;15.56;84.86
46394;BME280;32099;53.588;10.176;2022-09-09T01:21:17;100456.75;;;15.56;84.63
46394;BME280;32099;53.588;10.176;2022-09-09T01:26:38;100461.19;;;15.57;84.64
46394;BME280;32099;53.588;10.176;2022-09-09T01:29:13;100457.81;;;15.55;84.63
46394;BME280;32099;53.588;10.176;2022-09-09T01:31:42;100459.50;;;15.56;85.21
46394;BME280;32099;53.588;10.176;2022-09-09T01:34:21;100457.59;;;15.56;84.31
46394;BME280;32099;53.588;10.176;2022-09-09T01:39:29;100467.94;;;15.54;84.44
46394;BME280;32099;53.588;10.176;2022-09-09T01:41:56;100461.63;;;15.54;84.94
46394;BME280;32099;53.588;10.176;2022-09-09T01:44:22;100461.00;;;15.52;84.75
46394;BME280;32099;53.588;10.176;2022-09-09T01:46:48;100457.16;;;15.60;84.15
46394;BME280;32099;53.588;10.176;2022-09-09T01:49:13;100459.44;;;15.63;84.19
46394;BME280;32099;53.588;10.176;2022-09-09T01:51:39;100459.22;;;15.64;84.12
46394;BME280;32099;53.588;10.176;2022-09-09T01:54:07;100453.50;;;15.66;84.75
46394;BME280;32099;53.588;10.176;2022-09-09T02:04:44;100453.66;;;15.71;83.37
46394;BME280;32099;53.588;10.176;2022-09-09T02:09:52;100451.16;;;15.69;83.33
46394;BME280;32099;53.588;10.176;2022-09-09T02:12:26;100450.97;;;15.64;84.11
46394;BME280;32099;53.588;10.176;2022-09-09T02:14:56;100457.28;;;15.65;83.74
46394;BME280;32099;53.588;10.176;2022-09-09T02:17:28;100448.22;;;15.64;83.95
46394;BME280;32099;53.588;10.176;2022-09-09T02:20:01;100452.91;;;15.64;83.86
46394;BME280;32099;53.588;10.176;2022-09-09T02:22:33;100463.88;;;15.64;83.91
46394;BME280;32099;53.588;10.176;2022-09-09T02:25:05;100461.97;;;15.64;84.13
46394;BME280;32099;53.588;10.176;2022-09-09T02:27:33;100452.66;;;15.65;84.82
46394;BME280;32099;53.588;10.176;2022-09-09T02:29:59;100455.16;;;15.67;83.53
46394;BME280;32099;53.588;10.176;2022-09-09T02:32:27;100444.81;;;15.69;83.49
46394;BME280;32099;53.588;10.176;2022-09-09T02:34:56;100451.38;;;15.68;83.52
46394;BME280;32099;53.588;10.176;2022-09-09T02:37:26;100452.66;;;15.65;84.34
46394;BME280;32099;53.588;10.176;2022-09-09T02:39:58;100451.66;;;15.60;84.22
46394;BME280;32099;53.588;10.176;2022-09-09T02:42:23;100444.50;;;15.52;84.27
46394;BME280;32099;53.588;10.176;2022-09-09T02:44:48;100454.88;;;15.50;84.29
46394;BME280;32099;53.588;10.176;2022-09-09T02:47:29;100447.94;;;15.47;84.50
46394;BME280;32099;53.588;10.176;2022-09-09T02:55:39;100449.63;;;15.48;85.46
46394;BME280;32099;53.588;10.176;2022-09-09T02:58:10;100451.13;;;15.44;85.07
46394;BME280;32099;53.588;10.176;2022-09-09T03:00:42;100441.44;;;15.41;84.98
46394;BME280;32099;53.588;10.176;2022-09-09T03:03:10;100451.41;;;15.36;85.44
46394;BME280;32099;53.588;10.176;2022-09-09T03:05:36;100453.53;;;15.34;84.98
46394;BME280;32099;53.588;10.176;2022-09-09T03:08:03;100460.28;;;15.38;85.46
46394;BME280;32099;53.588;10.176;2022-09-09T03:10:28;100457.09;;;15.41;85.49
46394;BME280;32099;53.588;10.176;2022-09-09T03:12:53;100454.94;;;15.43;84.82
46394;BME280;32099;53.588;10.176;2022-09-09T03:15:20;100463.41;;;15.41;84.66
46394;BME280;32099;53.588;10.176;2022-09-09T03:17:45;100459.59;;;15.42;85.08
46394;BME280;32099;53.588;10.176;2022-09-09T03:20:11;100458.31;;;15.45;84.39
46394;BME280;32099;53.588;10.176;2022-09-09T03:22:37;100456.63;;;15.44;84.27
46394;BME280;32099;53.588;10.176;2022-09-09T03:25:02;100461.47;;;15.42;84.32
46394;BME280;32099;53.588;10.176;2022-09-09T03:27:28;100459.84;;;15.41;84.20
46394;BME280;32099;53.588;10.176;2022-09-09T03:29:54;100453.03;;;15.43;84.50
46394;BME280;32099;53.588;10.176;2022-09-09T03:32:19;100456.22;;;15.40;84.29
46394;BME280;32099;53.588;10.176;2022-09-09T03:34:47;100464.31;;;15.35;84.14
46394;BME280;32099;53.588;10.176;2022-09-09T03:37:14;100455.88;;;15.30;85.03
46394;BME280;32099;53.588;10.176;2022-09-09T03:39:40;100458.00;;;15.28;84.39
46394;BME280;32099;53.588;10.176;2022-09-09T03:42:05;100452.75;;;15.26;84.10
46394;BME280;32099;53.588;10.176;2022-09-09T03:44:30;100439.84;;;15.27;84.87
46394;BME280;32099;53.588;10.176;2022-09-09T03:46:56;100456.16;;;15.22;85.45
46394;BME280;32099;53.588;10.176;2022-09-09T03:49:22;100459.72;;;15.22;84.75
46394;BME280;32099;53.588;10.176;2022-09-09T03:51:47;100463.09;;;15.24;84.51
46394;BME280;32099;53.588;10.176;2022-09-09T03:54:13;100459.91;;;15.27;84.26
46394;BME280;32099;53.588;10.176;2022-09-09T03:56:38;100457.78;;;15.30;84.39
46394;BME280;32099;53.588;10.176;2022-09-09T03:59:06;100468.97;;;15.28;84.65
46394;BME280;32099;53.588;10.176;2022-09-09T04:01:31;100455.28;;;15.21;83.94
46394;BME280;32099;53.588;10.176;2022-09-09T04:03:56;100452.78;;;15.20;84.45
46394;BME280;32099;53.588;10.176;2022-09-09T04:06:23;100466.13;;;15.16;84.39
46394;BME280;32099;53.588;10.176;2022-09-09T04:08:49;100469.06;;;15.15;84.42
46394;BME280;32099;53.588;10.176;2022-09-09T04:11:15;100472.66;;;15.15;84.40
46394;BME280;32099;53.588;10.176;2022-09-09T04:13:41;100464.19;;;15.17;84.42
46394;BME280;32099;53.588;10.176;2022-09-09T04:16:07;100462.75;;;15.14;84.38
46394;BME280;32099;53.588;10.176;2022-09-09T04:18:35;100471.16;;;15.19;84.54
46394;BME280;32099;53.588;10.176;2022-09-09T04:21:00;100479.44;;;15.13;84.70
46394;BME280;32099;53.588;10.176;2022-09-09T04:23:26;100469.09;;;15.08;84.46
46394;BME280;32099;53.588;10.176;2022-09-09T04:25:54;100476.72;;;15.06;84.54
46394;BME280;32099;53.588;10.176;2022-09-09T04:28:21;100476.09;;;15.04;83.67
46394;BME280;32099;53.588;10.176;2022-09-09T04:30:47;100486.06;;;14.98;85.49
46394;BME280;32099;53.588;10.176;2022-09-09T04:33:13;100487.31;;;14.95;85.20
46394;BME280;32099;53.588;10.176;2022-09-09T04:35:39;100483.31;;;14.98;84.58
46394;BME280;32099;53.588;10.176;2022-09-09T04:38:08;100478.88;;;14.97;84.52
46394;BME280;32099;53.588;10.176;2022-09-09T04:40:34;100482.91;;;14.94;85.02
46394;BME280;32099;53.588;10.176;2022-09-09T04:43:00;100484.63;;;14.89;85.83
46394;BME280;32099;53.588;10.176;2022-09-09T04:45:29;100489.25;;;14.88;85.65
46394;BME280;32099;53.588;10.176;2022-09-09T04:47:55;100481.44;;;14.92;85.38
46394;BME280;32099;53.588;10.176;2022-09-09T04:50:21;100485.19;;;14.98;85.24
46394;BME280;32099;53.588;10.176;2022-09-09T04:52:46;100486.88;;;14.99;84.33
46394;BME280;32099;53.588;10.176;2022-09-09T04:55:11;100490.03;;;15.02;84.84
46394;BME280;32099;53.588;10.176;2022-09-09T04:57:38;100490.66;;;15.04;84.08
46394;BME280;32099;53.588;10.176;2022-09-09T05:00:04;100491.28;;;15.06;83.96
46394;BME280;32099;53.588;10.176;2022-09-09T05:02:31;100489.19;;;15.08;84.10
46394;BME280;32099;53.588;10.176;2022-09-09T05:04:57;100491.53;;;15.05;84.43
46394;BME280;32099;53.588;10.176;2022-09-09T05:07:22;100494.69;;;15.02;84.40
46394;BME280;32099;53.588;10.176;2022-09-09T05:09:48;100503.56;;;15.04;84.54
46394;BME280;32099;53.588;10.176;2022-09-09T05:12:14;100494.28;;;15.05;84.62
46394;BME280;32099;53.588;10.176;2022-09-09T05:14:41;100493.88;;;15.01;85.43
46394;BME280;32099;53.588;10.176;2022-09-09T05:17:07;100493.00;;;15.01;84.05
46394;BME280;32099;53.588;10.176;2022-09-09T05:19:32;100493.41;;;15.04;84.37
46394;BME280;32099;53.588;10.176;2022-09-09T05:21:57;100491.72;;;15.03;83.85
46394;BME280;32099;53.588;10.176;2022-09-09T05:24:23;100497.84;;;15.05;83.74
46394;BME280;32099;53.588;10.176;2022-09-09T05:26:48;100502.72;;;15.03;83.71
46394;BME280;32099;53.588;10.176;2022-09-09T05:29:13;100498.06;;;15.04;83.93
46394;BME280;32099;53.588;10.176;2022-09-09T05:31:39;100501.00;;;15.09;83.42
46394;BME280;32099;53.588;10.176;2022-09-09T05:34:04;100500.16;;;15.08;83.74
46394;BME280;32099;53.588;10.176;2022-09-09T05:36:29;100501.00;;;15.09;84.23
46394;BME280;32099;53.588;10.176;2022-09-09T05:38:55;100506.94;;;15.06;84.19
46394;BME280;32099;53.588;10.176;2022-09-09T05:41:20;100502.03;;;15.08;84.04
46394;BME280;32099;53.588;10.176;2022-09-09T05:43:46;100503.31;;;15.12;83.87
46394;BME280;32099;53.588;10.176;2022-09-09T05:46:18;100502.63;;;15.17;84.00
46394;BME280;32099;53.588;10.176;2022-09-09T05:48:48;100507.88;;;15.25;83.87
46394;BME280;32099;53.588;10.176;2022-09-09T05:51:21;100509.34;;;15.27;83.71
46394;BME280;32099;53.588;10.176;2022-09-09T05:53:49;100513.31;;;15.32;83.76
46394;BME280;32099;53.588;10.176;2022-09-09T05:56:23;100517.09;;;15.37;83.54
46394;BME280;32099;53.588;10.176;2022-09-09T05:58:53;100517.53;;;15.41;84.09
46394;BME280;32099;53.588;10.176;2022-09-09T06:01:20;100527.22;;;15.43;83.80
46394;BME280;32099;53.588;10.176;2022-09-09T06:03:49;100529.53;;;15.47;83.86
46394;BME280;32099;53.588;10.176;2022-09-09T06:06:16;100525.06;;;15.52;83.83
46394;BME280;32099;53.588;10.176;2022-09-09T06:08:45;100532.22;;;15.53;83.34
46394;BME280;32099;53.588;10.176;2022-09-09T06:11:13;100530.31;;;15.54;83.33
46394;BME280;32099;53.588;10.176;2022-09-09T06:13:40;100543.00;;;15.55;82.96
46394;BME280;32099;53.588;10.176;2022-09-09T06:16:09;100535.38;;;15.57;82.72
46394;BME280;32099;53.588;10.176;2022-09-09T06:18:36;100544.84;;;15.61;83.11
46394;BME280;32099;53.588;10.176;2022-09-09T06:21:03;100559.41;;;15.68;83.40
46394;BME280;32099;53.588;10.176;2022-09-09T06:23:30;100548.97;;;15.77;83.45
46394;BME280;32099;53.588;10.176;2022-09-09T06:26:05;100553.19;;;15.86;82.92
46394;BME280;32099;53.588;10.176;2022-09-09T06:28:31;100559.19;;;16.02;82.75
46394;BME280;32099;53.588;10.176;2022-09-09T06:30:58;100552.31;;;16.11;82.40
46394;BME280;32099;53.588;10.176;2022-09-09T06:33:32;100557.34;;;16.21;82.12
46394;BME280;32099;53.588;10.176;2022-09-09T06:36:00;100554.13;;;16.24;82.44
46394;BME280;32099;53.588;10.176;2022-09-09T06:38:26;100552.69;;;16.22;82.07
46394;BME280;32099;53.588;10.176;2022-09-09T06:40:57;100548.00;;;16.22;81.87
46394;BME280;32099;53.588;10.176;2022-09-09T06:43:24;100558.41;;;16.20;81.99
46394;BME280;32099;53.588;10.176;2022-09-09T06:45:57;100554.34;;;16.23;82.36
46394;BME280;32099;53.588;10.176;2022-09-09T06:48:25;100554.69;;;16.33;82.00
46394;BME280;32099;53.588;10.176;2022-09-09T06:51:04;100556.72;;;16.44;83.27
46394;BME280;32099;53.588;10.176;2022-09-09T06:53:37;100556.63;;;16.51;82.07
46394;BME280;32099;53.588;10.176;2022-09-09T06:58:35;100557.78;;;16.62;81.97
46394;BME280;32099;53.588;10.176;2022-09-09T07:01:04;100543.03;;;16.75;81.73
46394;BME280;32099;53.588;10.176;2022-09-09T07:03:31;100546.50;;;16.89;82.23
46394;BME280;32099;53.588;10.176;2022-09-09T07:05:57;100554.38;;;17.04;82.52
46394;BME280;32099;53.588;10.176;2022-09-09T07:08:23;100550.94;;;17.08;82.11
46394;BME280;32099;53.588;10.176;2022-09-09T07:10:49;100550.16;;;17.20;82.03
46394;BME280;32099;53.588;10.176;2022-09-09T07:13:16;100546.38;;;17.33;80.33
46394;BME280;32099;53.588;10.176;2022-09-09T07:15:41;100551.56;;;17.41;79.99
46394;BME280;32099;53.588;10.176;2022-09-09T07:18:07;100556.56;;;17.32;79.79
46394;BME280;32099;53.588;10.176;2022-09-09T07:20:34;100550.78;;;17.22;80.51
46394;BME280;32099;53.588;10.176;2022-09-09T07:22:59;100552.44;;;17.23;80.92
46394;BME280;32099;53.588;10.176;2022-09-09T07:25:24;100559.78;;;17.29;80.78
46394;BME280;32099;53.588;10.176;2022-09-09T07:27:53;100558.25;;;17.33;80.13
46394;BME280;32099;53.588;10.176;2022-09-09T07:30:18;100558.69;;;17.30;80.49
46394;BME280;32099;53.588;10.176;2022-09-09T07:32:44;100557.38;;;17.33;80.47
46394;BME280;32099;53.588;10.176;2022-09-09T07:35:09;100560.75;;;17.35;79.94
46394;BME280;32099;53.588;10.176;2022-09-09T07:37:36;100564.13;;;17.37;80.34
46394;BME280;32099;53.588;10.176;2022-09-09T07:40:02;100554.91;;;17.43;80.33
46394;BME280;32099;53.588;10.176;2022-09-09T07:42:28;100563.25;;;17.55;80.71
46394;BME280;32099;53.588;10.176;2022-09-09T07:44:54;100566.72;;;17.62;79.88
46394;BME280;32099;53.588;10.176;2022-09-09T07:47:19;100568.38;;;17.94;78.91
46394;BME280;32099;53.588;10.176;2022-09-09T07:49:45;100570.41;;;18.17;77.16
46394;BME280;32099;53.588;10.176;2022-09-09T07:52:11;100575.09;;;18.28;77.38
46394;BME280;32099;53.588;10.176;2022-09-09T07:54:36;100582.25;;;18.29;76.77
46394;BME280;32099;53.588;10.176;2022-09-09T07:57:02;100590.69;;;18.23;76.85
46394;BME280;32099;53.588;10.176;2022-09-09T07:59:28;100586.38;;;18.39;77.53
46394;BME280;32099;53.588;10.176;2022-09-09T08:01:54;100588.38;;;18.79;76.38
46394;BME280;32099;53.588;10.176;2022-09-09T08:04:20;100585.22;;;19.11;75.96
46394;BME280;32099;53.588;10.176;2022-09-09T08:06:48;100589.38;;;19.37;74.97
46394;BME280;32099;53.588;10.176;2022-09-09T08:09:15;100588.84;;;19.52;75.35
46394;BME280;32099;53.588;10.176;2022-09-09T08:11:41;100591.25;;;19.78;73.56
46394;BME280;32099;53.588;10.176;2022-09-09T08:14:08;100601.47;;;19.77;72.69
46394;BME280;32099;53.588;10.176;2022-09-09T08:16:35;100595.50;;;19.68;72.39
46394;BME280;32099;53.588;10.176;2022-09-09T08:19:06;100595.53;;;19.56;73.75
46394;BME280;32099;53.588;10.176;2022-09-09T08:21:32;100589.59;;;19.36;73.34
46394;BME280;32099;53.588;10.176;2022-09-09T08:23:59;100596.06;;;19.13;73.98
46394;BME280;32099;53.588;10.176;2022-09-09T08:26:34;100595.59;;;19.04;74.78
46394;BME280;32099;53.588;10.176;2022-09-09T08:29:02;100610.47;;;18.91;75.41
46394;BME280;32099;53.588;10.176;2022-09-09T08:31:34;100606.63;;;18.80;74.88
46394;BME280;32099;53.588;10.176;2022-09-09T08:34:02;100602.31;;;18.84;76.18
46394;BME280;32099;53.588;10.176;2022-09-09T08:36:30;100603.50;;;19.12;74.61
46394;BME280;32099;53.588;10.176;2022-09-09T08:38:58;100602.84;;;19.63;74.48
46394;BME280;32099;53.588;10.176;2022-09-09T08:41:35;100601.72;;;20.04;72.74
46394;BME280;32099;53.588;10.176;2022-09-09T08:44:10;100605.25;;;20.34;72.17
46394;BME280;32099;53.588;10.176;2022-09-09T08:46:58;100611.72;;;20.40;71.31
46394;BME280;32099;53.588;10.176;2022-09-09T08:52:49;100607.75;;;20.01;70.59
46394;BME280;32099;53.588;10.176;2022-09-09T08:55:48;100612.16;;;19.73;70.98
46394;BME280;32099;53.588;10.176;2022-09-09T08:58:20;100612.72;;;19.58;72.96
46394;BME280;32099;53.588;10.176;2022-09-09T09:11:43;100618.72;;;19.26;72.92
46394;BME280;32099;53.588;10.176;2022-09-09T09:14:18;100610.56;;;19.32;73.69
46394;BME280;32099;53.588;10.176;2022-09-09T09:16:51;100617.22;;;19.48;73.59
46394;BME280;32099;53.588;10.176;2022-09-09T09:19:21;100619.31;;;19.69;73.83
46394;BME280;32099;53.588;10.176;2022-09-09T09:22:11;100625.75;;;19.87;73.07
46394;BME280;32099;53.588;10.176;2022-09-09T09:27:21;100623.44;;;20.13;68.29
46394;BME280;32099;53.588;10.176;2022-09-09T09:29:56;100632.66;;;20.18;71.01
46394;BME280;32099;53.588;10.176;2022-09-09T09:32:24;100628.56;;;20.21;70.78
46394;BME280;32099;53.588;10.176;2022-09-09T09:34:56;100624.78;;;20.10;70.11
46394;BME280;32099;53.588;10.176;2022-09-09T09:37:26;100632.31;;;19.98;70.70
46394;BME280;32099;53.588;10.176;2022-09-09T09:39:55;100627.25;;;19.95;71.39
46394;BME280;32099;53.588;10.176;2022-09-09T09:42:20;100625.09;;;19.97;71.40
46394;BME280;32099;53.588;10.176;2022-09-09T09:44:46;100627.59;;;19.98;72.64
46394;BME280;32099;53.588;10.176;2022-09-09T09:47:12;100625.44;;;20.17;72.88
46394;BME280;32099;53.588;10.176;2022-09-09T09:49:59;100616.22;;;20.46;69.91
46394;BME280;32099;53.588;10.176;2022-09-09T09:52:27;100625.66;;;21.01;69.76
46394;BME280;32099;53.588;10.176;2022-09-09T09:54:55;100630.78;;;21.32;68.80
46394;BME280;32099;53.588;10.176;2022-09-09T09:57:24;100627.63;;;21.45;67.30
46394;BME280;32099;53.588;10.176;2022-09-09T10:00:00;100629.34;;;21.51;65.25
46394;BME280;32099;53.588;10.176;2022-09-09T10:02:37;100638.44;;;21.47;64.09
46394;BME280;32099;53.588;10.176;2022-09-09T10:05:05;100636.13;;;21.38;67.34
46394;BME280;32099;53.588;10.176;2022-09-09T10:07:45;100636.38;;;21.37;67.14
46394;BME280;32099;53.588;10.176;2022-09-09T10:10:24;100636.13;;;21.38;67.61
46394;BME280;32099;53.588;10.176;2022-09-09T10:13:48;100631.47;;;21.22;67.64
46394;BME280;32099;53.588;10.176;2022-09-09T10:15:59;100633.34;;;21.16;67.75
46394;BME280;32099;53.588;10.176;2022-09-09T10:19:00;100637.34;;;21.03;68.69
46394;BME280;32099;53.588;10.176;2022-09-09T10:24:16;100637.47;;;21.14;69.14
46394;BME280;32099;53.588;10.176;2022-09-09T10:29:49;100621.38;;;21.82;67.05
46394;BME280;32099;53.588;10.176;2022-09-09T10:40:43;100613.06;;;22.42;65.42
46394;BME280;32099;53.588;10.176;2022-09-09T10:46:07;100618.53;;;22.32;65.76
46394;BME280;32099;53.588;10.176;2022-09-09T10:48:56;100612.91;;;22.27;65.93
46394;BME280;32099;53.588;10.176;2022-09-09T10:54:55;100613.41;;;22.18;64.97
46394;BME280;32099;53.588;10.176;2022-09-09T10:57:50;100611.25;;;22.26;64.12
46394;BME280;32099;53.588;10.176;2022-09-09T11:00:24;100614.50;;;22.17;66.66
46394;BME280;32099;53.588;10.176;2022-09-09T11:02:58;100614.94;;;22.04;66.78
46394;BME280;32099;53.588;10.176;2022-09-09T11:05:28;100621.66;;;21.81;66.55
46394;BME280;32099;53.588;10.176;2022-09-09T11:08:12;100613.44;;;21.64;67.43
46394;BME280;32099;53.588;10.176;2022-09-09T11:10:48;100614.91;;;21.49;66.64
46394;BME280;32099;53.588;10.176;2022-09-09T11:21:57;100606.78;;;21.65;66.44
46394;BME280;32099;53.588;10.176;2022-09-09T11:24:27;100606.31;;;21.73;63.90
46394;BME280;32099;53.588;10.176;2022-09-09T11:35:11;100614.31;;;21.97;64.68
46394;BME280;32099;53.588;10.176;2022-09-09T11:40:30;100623.16;;;21.94;65.89
46394;BME280;32099;53.588;10.176;2022-09-09T11:43:04;100619.13;;;22.07;64.94
46394;BME280;32099;53.588;10.176;2022-09-09T11:45:34;100622.88;;;22.23;65.26
46394;BME280;32099;53.588;10.176;2022-09-09T11:48:01;100623.84;;;22.39;63.80
46394;BME280;32099;53.588;10.176;2022-09-09T11:50:29;100621.47;;;22.47;63.70
46394;BME280;32099;53.588;10.176;2022-09-09T11:53:19;100622.25;;;22.43;63.37
46394;BME280;32099;53.588;10.176;2022-09-09T11:55:47;100630.13;;;22.24;63.15
46394;BME280;32099;53.588;10.176;2022-09-09T12:00:43;100623.84;;;22.06;63.84
46394;BME280;32099;53.588;10.176;2022-09-09T12:08:58;100631.75;;;21.92;65.47
46394;BME280;32099;53.588;10.176;2022-09-09T12:11:31;100625.13;;;21.93;64.93
46394;BME280;32099;53.588;10.176;2022-09-09T12:14:00;100621.75;;;21.91;63.40
46394;BME280;32099;53.588;10.176;2022-09-09T12:16:35;100609.78;;;21.85;64.38
46394;BME280;32099;53.588;10.176;2022-09-09T12:19:04;100616.38;;;22.07;66.05
46394;BME280;32099;53.588;10.176;2022-09-09T12:21:45;100614.66;;;22.38;63.25
46394;BME280;32099;53.588;10.176;2022-09-09T12:24:19;100616.88;;;22.69;63.63
46394;BME280;32099;53.588;10.176;2022-09-09T12:26:57;100621.59;;;22.68;63.23
46394;BME280;32099;53.588;10.176;2022-09-09T12:32:25;100628.06;;;22.14;64.96
46394;BME280;32099;53.588;10.176;2022-09-09T12:34:55;100626.72;;;21.89;64.72
46394;BME280;32099;53.588;10.176;2022-09-09T12:37:34;100623.16;;;21.66;66.39
46394;BME280;32099;53.588;10.176;2022-09-09T12:40:03;100633.63;;;21.59;65.75
46394;BME280;32099;53.588;10.176;2022-09-09T12:42:32;100629.41;;;21.56;66.17
46394;BME280;32099;53.588;10.176;2022-09-09T12:45:01;100622.84;;;21.63;66.97
46394;BME280;32099;53.588;10.176;2022-09-09T12:47:42;100633.13;;;21.62;65.64
46394;BME280;32099;53.588;10.176;2022-09-09T12:50:18;100626.78;;;21.45;66.93
46394;BME280;32099;53.588;10.176;2022-09-09T12:52:46;100620.06;;;21.40;66.73
46394;BME280;32099;53.588;10.176;2022-09-09T12:55:18;100623.06;;;21.34;67.05
46394;BME280;32099;53.588;10.176;2022-09-09T12:57:46;100621.59;;;21.31;68.37
46394;BME280;32099;53.588;10.176;2022-09-09T13:00:16;100620.84;;;21.36;68.46
46394;BME280;32099;53.588;10.176;2022-09-09T13:02:53;100620.00;;;21.35;68.05
46394;BME280;32099;53.588;10.176;2022-09-09T13:05:27;100619.63;;;21.26;68.14
46394;BME280;32099;53.588;10.176;2022-09-09T13:08:02;100616.03;;;21.26;68.22
46394;BME280;32099;53.588;10.176;2022-09-09T13:10:30;100625.75;;;21.29;67.96
46394;BME280;32099;53.588;10.176;2022-09-09T13:13:00;100620.91;;;21.19;68.19
46394;BME280;32099;53.588;10.176;2022-09-09T13:15:27;100625.81;;;21.11;68.30
46394;BME280;32099;53.588;10.176;2022-09-09T13:17:55;100627.34;;;21.02;70.03
46394;BME280;32099;53.588;10.176;2022-09-09T13:20:23;100628.34;;;20.96;69.96
46394;BME280;32099;53.588;10.176;2022-09-09T13:22:50;100626.53;;;20.85;71.25
46394;BME280;32099;53.588;10.176;2022-09-09T13:25:22;100627.81;;;20.77;71.28
46394;BME280;32099;53.588;10.176;2022-09-09T13:27:55;100613.59;;;20.73;71.44
46394;BME280;32099;53.588;10.176;2022-09-09T13:30:32;100618.81;;;20.70;72.06
46394;BME280;32099;53.588;10.176;2022-09-09T13:35:29;100620.41;;;20.83;72.31
46394;BME280;32099;53.588;10.176;2022-09-09T13:37:55;100633.84;;;20.74;72.57
46394;BME280;32099;53.588;10.176;2022-09-09T13:40:21;100638.63;;;20.61;72.80
46394;BME280;32099;53.588;10.176;2022-09-09T13:42:51;100651.25;;;20.52;73.72
46394;BME280;32099;53.588;10.176;2022-09-09T13:45:20;100654.16;;;20.45;73.97
46394;BME280;32099;53.588;10.176;2022-09-09T13:47:48;100649.94;;;20.43;75.06
46394;BME280;32099;53.588;10.176;2022-09-09T13:50:29;100655.41;;;20.38;74.19
46394;BME280;32099;53.588;10.176;2022-09-09T13:52:56;100652.81;;;20.31;74.14
46394;BME280;32099;53.588;10.176;2022-09-09T13:55:24;100660.69;;;20.22;75.02
46394;BME280;32099;53.588;10.176;2022-09-09T13:58:00;100658.94;;;20.16;75.23
46394;BME280;32099;53.588;10.176;2022-09-09T14:00:31;100666.91;;;20.12;73.72
46394;BME280;32099;53.588;10.176;2022-09-09T14:02:58;100665.25;;;19.99;74.23
46394;BME280;32099;53.588;10.176;2022-09-09T14:05:27;100664.25;;;19.88;73.58
46394;BME280;32099;53.588;10.176;2022-09-09T14:07:53;100661.25;;;19.78;73.55
46394;BME280;32099;53.588;10.176;2022-09-09T14:10:18;100658.38;;;19.73;73.56
46394;BME280;32099;53.588;10.176;2022-09-09T14:12:44;100650.81;;;19.68;75.46
46394;BME280;32099;53.588;10.176;2022-09-09T14:15:09;100648.69;;;19.58;76.16
46394;BME280;32099;53.588;10.176;2022-09-09T14:17:36;100639.44;;;19.53;75.08
46394;BME280;32099;53.588;10.176;2022-09-09T14:20:04;100642.13;;;19.48;74.28
46394;BME280;32099;53.588;10.176;2022-09-09T14:22:32;100635.78;;;19.35;74.48
46394;BME280;32099;53.588;10.176;2022-09-09T14:24:57;100636.72;;;19.29;74.81
46394;BME280;32099;53.588;10.176;2022-09-09T14:27:23;100637.72;;;19.23;75.12
46394;BME280;32099;53.588;10.176;2022-09-09T14:29:50;100634.75;;;19.13;74.68
46394;BME280;32099;53.588;10.176;2022-09-09T14:32:16;100641.56;;;19.10;75.05
46394;BME280;32099;53.588;10.176;2022-09-09T14:34:41;100638.72;;;19.05;74.87
46394;BME280;32099;53.588;10.176;2022-09-09T14:37:06;100646.31;;;18.98;74.90
46394;BME280;32099;53.588;10.176;2022-09-09T14:39:31;100634.03;;;18.93;75.63
46394;BME280;32099;53.588;10.176;2022-09-09T14:41:57;100637.84;;;18.92;75.74
46394;BME280;32099;53.588;10.176;2022-09-09T14:44:23;100649.75;;;18.81;76.44
46394;BME280;32099;53.588;10.176;2022-09-09T14:46:48;100651.19;;;18.72;77.03
46394;BME280;32099;53.588;10.176;2022-09-09T14:49:15;100654.78;;;18.60;77.40
46394;BME280;32099;53.588;10.176;2022-09-09T14:51:40;100656.44;;;18.49;77.95
46394;BME280;32099;53.588;10.176;2022-09-09T14:54:06;100655.72;;;18.42;78.42